createdAt,value
2022-12-09T00:00:44.034Z,4.48
2022-12-09T00:03:10.870Z,4.60
2022-12-09T00:05:40.238Z,4.34
2022-12-09T00:08:07.066Z,4.35
2022-12-09T00:10:34.267Z,4.37
2022-12-09T00:13:01.870Z,4.27
2022-12-09T00:15:28.570Z,4.35
2022-12-09T00:17:55.229Z,4.33
2022-12-09T00:20:21.891Z,4.33
2022-12-09T00:22:48.691Z,4.43
2022-12-09T00:25:15.266Z,4.47
2022-12-09T00:27:42.079Z,4.28
2022-12-09T00:30:09.338Z,4.18
2022-12-09T00:32:36.552Z,4.11
2022-12-09T00:35:04.935Z,4.18
2022-12-09T00:37:31.553Z,4.43
2022-12-09T00:39:58.335Z,4.62
2022-12-09T00:42:25.202Z,4.72
2022-12-09T00:44:52.123Z,4.71
2022-12-09T00:47:18.838Z,4.91
2022-12-09T00:49:45.813Z,4.96
2022-12-09T00:52:12.424Z,5.22
2022-12-09T00:54:39.189Z,5.47
2022-12-09T00:57:06.087Z,5.57
2022-12-09T00:59:32.875Z,5.32
2022-12-09T01:01:59.611Z,5.30
2022-12-09T01:04:26.591Z,5.35
2022-12-09T01:06:53.354Z,5.45
2022-12-09T01:09:20.290Z,5.60
2022-12-09T01:11:46.978Z,5.75
2022-12-09T01:14:13.769Z,5.83
2022-12-09T01:16:40.608Z,6.16
2022-12-09T01:19:08.958Z,6.16
2022-12-09T01:21:35.722Z,6.20
2022-12-09T01:24:06.874Z,6.17
2022-12-09T01:26:33.885Z,5.92
2022-12-09T01:29:00.514Z,5.66
2022-12-09T01:31:27.299Z,5.67
2022-12-09T01:33:55.376Z,6.01
2022-12-09T01:36:24.125Z,6.06
2022-12-09T01:38:51.144Z,6.08
2022-12-09T01:41:18.043Z,6.00
2022-12-09T01:43:44.839Z,6.23
2022-12-09T01:46:11.569Z,6.19
2022-12-09T01:48:43.457Z,6.11
2022-12-09T01:51:15.261Z,6.17
2022-12-09T01:53:44.020Z,6.44
2022-12-09T01:56:22.393Z,6.89
2022-12-09T01:58:49.582Z,6.58
2022-12-09T02:01:16.806Z,6.45
2022-12-09T02:03:44.040Z,6.30
2022-12-09T02:06:10.770Z,5.97
2022-12-09T02:08:37.551Z,6.31
2022-12-09T02:11:32.580Z,6.15
2022-12-09T02:14:01.943Z,6.18
2022-12-09T02:16:29.930Z,6.06
2022-12-09T02:19:17.040Z,5.83
2022-12-09T02:21:53.177Z,5.63
2022-12-09T02:24:35.367Z,5.64
2022-12-09T02:27:10.699Z,5.72
2022-12-09T02:29:49.476Z,5.85
2022-12-09T02:32:28.059Z,5.99
2022-12-09T02:34:57.800Z,6.05
2022-12-09T02:37:30.770Z,5.80
2022-12-09T02:39:57.351Z,5.93
2022-12-09T02:42:26.064Z,6.00
2022-12-09T02:44:52.813Z,5.94
2022-12-09T02:47:21.202Z,5.70
2022-12-09T02:49:50.609Z,5.90
2022-12-09T02:52:18.366Z,5.75
2022-12-09T02:54:45.190Z,6.13
2022-12-09T02:57:18.914Z,6.32
2022-12-09T02:59:45.523Z,6.74
2022-12-09T03:02:28.522Z,6.81
2022-12-09T03:05:19.817Z,7.02
2022-12-09T03:07:55.826Z,7.13
2022-12-09T03:10:39.401Z,7.17
2022-12-09T03:13:16.453Z,7.09
2022-12-09T03:15:47.408Z,7.17
2022-12-09T03:18:15.944Z,7.01
2022-12-09T03:20:42.880Z,7.06
2022-12-09T03:23:09.977Z,7.23
2022-12-09T03:25:42.982Z,7.20
2022-12-09T03:28:22.045Z,7.24
2022-12-09T03:30:48.718Z,7.28
2022-12-09T03:33:16.432Z,7.16
2022-12-09T03:35:44.750Z,7.01
2022-12-09T03:38:13.434Z,7.01
2022-12-09T03:40:40.073Z,6.85
2022-12-09T03:43:19.181Z,6.69
2022-12-09T03:45:45.907Z,6.76
2022-12-09T03:48:12.688Z,6.61
2022-12-09T03:51:10.515Z,6.49
2022-12-09T03:54:02.625Z,6.13
2022-12-09T03:56:37.530Z,5.79
2022-12-09T03:59:04.836Z,5.68
2022-12-09T04:01:31.913Z,5.33
2022-12-09T04:03:58.821Z,5.49
2022-12-09T04:06:26.065Z,5.39
2022-12-09T04:08:55.753Z,5.15
2022-12-09T04:11:26.024Z,5.12
2022-12-09T04:13:52.880Z,5.07
2022-12-09T04:16:19.516Z,5.05
2022-12-09T04:18:46.637Z,5.34
2022-12-09T04:21:13.881Z,5.33
2022-12-09T04:23:43.253Z,5.38
2022-12-09T04:26:14.412Z,5.67
2022-12-09T04:28:41.204Z,6.18
2022-12-09T04:31:18.183Z,5.87
2022-12-09T04:33:45.107Z,5.46
2022-12-09T04:36:13.509Z,5.63
2022-12-09T04:38:40.871Z,5.18
2022-12-09T04:41:07.934Z,5.38
2022-12-09T04:43:35.079Z,5.43
2022-12-09T04:46:03.501Z,5.20
2022-12-09T04:48:30.289Z,5.13
2022-12-09T04:50:57.208Z,5.24
2022-12-09T04:53:24.298Z,5.09
2022-12-09T04:55:58.274Z,5.10
2022-12-09T04:58:24.924Z,4.99
2022-12-09T05:00:51.614Z,5.01
2022-12-09T05:03:18.347Z,4.88
2022-12-09T05:05:45.274Z,4.66
2022-12-09T05:08:12.272Z,4.73
2022-12-09T05:10:39.447Z,4.86
2022-12-09T05:13:07.213Z,4.11
2022-12-09T05:15:34.270Z,4.28
2022-12-09T05:18:02.480Z,4.68
2022-12-09T05:20:29.995Z,4.66
2022-12-09T05:22:57.193Z,4.51
2022-12-09T05:25:23.991Z,4.36
2022-12-09T05:27:50.884Z,3.95
2022-12-09T05:30:17.964Z,4.05
2022-12-09T05:32:44.808Z,4.11
2022-12-09T05:35:11.598Z,3.95
2022-12-09T05:37:38.479Z,4.04
2022-12-09T05:40:06.671Z,4.02
2022-12-09T05:42:39.414Z,4.08
2022-12-09T05:45:08.320Z,3.96
2022-12-09T05:47:35.382Z,3.87
2022-12-09T05:50:07.671Z,3.84
2022-12-09T05:52:35.981Z,3.78
2022-12-09T05:55:05.371Z,3.77
2022-12-09T05:57:33.682Z,3.51
2022-12-09T06:00:00.774Z,3.60
2022-12-09T06:02:27.771Z,3.78
2022-12-09T06:04:56.106Z,3.44
2022-12-09T06:07:23.362Z,3.43
2022-12-09T06:09:50.431Z,3.60
2022-12-09T06:12:17.552Z,3.79
2022-12-09T06:14:44.307Z,4.02
2022-12-09T06:17:11.194Z,4.11
2022-12-09T06:19:38.401Z,4.12
2022-12-09T06:22:05.456Z,4.18
2022-12-09T06:24:32.509Z,3.99
2022-12-09T06:26:59.437Z,3.81
2022-12-09T06:29:26.431Z,3.87
2022-12-09T06:31:53.199Z,3.97
2022-12-09T06:34:20.308Z,4.04
2022-12-09T06:36:46.970Z,4.08
2022-12-09T06:39:13.736Z,4.17
2022-12-09T06:41:41.531Z,4.06
2022-12-09T06:44:09.129Z,3.95
2022-12-09T06:46:36.162Z,4.13
2022-12-09T06:49:03.529Z,4.16
2022-12-09T06:51:30.740Z,4.24
2022-12-09T06:53:57.572Z,4.32
2022-12-09T06:56:24.845Z,4.29
2022-12-09T06:58:52.048Z,4.59
2022-12-09T07:01:24.772Z,4.65
2022-12-09T07:03:53.825Z,4.81
2022-12-09T07:06:30.150Z,4.80
2022-12-09T07:08:59.316Z,4.66
2022-12-09T07:11:26.783Z,4.88
2022-12-09T07:13:54.174Z,5.06
2022-12-09T07:16:21.097Z,5.02
2022-12-09T07:18:48.176Z,4.98
2022-12-09T07:21:17.498Z,5.02
2022-12-09T07:23:44.770Z,5.34
2022-12-09T07:26:11.907Z,5.46
2022-12-09T07:28:39.505Z,5.64
2022-12-09T07:31:06.531Z,5.54
2022-12-09T07:33:33.599Z,5.47
2022-12-09T07:36:00.955Z,5.62
2022-12-09T07:38:27.980Z,6.17
2022-12-09T07:40:54.920Z,5.89
2022-12-09T07:43:22.451Z,5.80
2022-12-09T07:45:49.574Z,6.24
2022-12-09T07:48:16.913Z,6.49
2022-12-09T07:50:44.149Z,6.25
2022-12-09T07:53:11.175Z,6.08
2022-12-09T07:55:38.003Z,6.22
2022-12-09T07:58:05.072Z,6.22
2022-12-09T08:00:32.144Z,5.93
2022-12-09T08:02:59.309Z,6.12
2022-12-09T08:05:26.533Z,6.40
2022-12-09T08:07:53.550Z,6.32
2022-12-09T08:10:20.557Z,6.50
2022-12-09T08:12:47.457Z,6.80
2022-12-09T08:15:17.021Z,6.82
2022-12-09T08:17:44.331Z,7.16
2022-12-09T08:20:12.153Z,7.09
2022-12-09T08:22:39.117Z,7.00
2022-12-09T08:25:07.091Z,7.15
2022-12-09T08:27:35.128Z,7.16
2022-12-09T08:30:01.963Z,7.27
2022-12-09T08:32:29.363Z,7.37
2022-12-09T08:34:56.678Z,7.43
2022-12-09T08:37:23.568Z,7.69
2022-12-09T08:39:50.281Z,7.62
2022-12-09T08:42:17.103Z,7.62
2022-12-09T08:44:44.128Z,7.71
2022-12-09T08:47:10.925Z,7.85
2022-12-09T08:49:38.521Z,8.21
2022-12-09T08:52:05.256Z,8.44
2022-12-09T08:54:32.050Z,8.67
2022-12-09T08:56:59.180Z,9.15
2022-12-09T08:59:26.215Z,9.44
2022-12-09T09:01:54.469Z,9.43
2022-12-09T09:04:22.930Z,9.39
2022-12-09T09:06:50.948Z,9.35
2022-12-09T09:09:18.650Z,9.57
2022-12-09T09:11:45.884Z,9.69
2022-12-09T09:14:13.329Z,9.64
2022-12-09T09:16:41.138Z,9.90
2022-12-09T09:19:08.334Z,9.64
2022-12-09T09:21:35.883Z,9.95
2022-12-09T09:24:03.166Z,9.95
2022-12-09T09:26:30.276Z,10.05
2022-12-09T09:28:57.228Z,10.11
2022-12-09T09:31:25.030Z,10.31
2022-12-09T09:33:52.198Z,10.38
2022-12-09T09:36:22.599Z,10.64
2022-12-09T09:38:51.484Z,10.99
2022-12-09T09:41:56.235Z,11.09
2022-12-09T09:44:33.801Z,11.44
2022-12-09T09:47:01.414Z,11.64
2022-12-09T09:49:34.534Z,11.92
2022-12-09T09:52:05.927Z,12.23
2022-12-09T09:54:33.019Z,12.01
2022-12-09T09:57:18.078Z,12.39
2022-12-09T10:00:24.638Z,12.45
2022-12-09T10:03:10.949Z,12.51
2022-12-09T10:05:52.100Z,12.56
2022-12-09T10:08:41.087Z,12.42
2022-12-09T10:11:19.494Z,12.13
2022-12-09T10:14:06.028Z,12.40
2022-12-09T10:16:39.654Z,12.53
2022-12-09T10:19:12.034Z,12.76
2022-12-09T10:21:42.378Z,13.32
2022-12-09T10:24:39.943Z,13.41
2022-12-09T10:27:30.594Z,13.66
2022-12-09T10:30:10.769Z,13.62
2022-12-09T10:32:38.540Z,13.48
2022-12-09T10:35:17.729Z,13.36
2022-12-09T10:37:45.261Z,13.10
2022-12-09T10:40:12.180Z,12.99
2022-12-09T10:43:09.423Z,12.86
2022-12-09T10:46:17.266Z,12.80
2022-12-09T10:48:47.286Z,12.64
2022-12-09T10:51:14.240Z,12.96
2022-12-09T10:53:48.916Z,12.85
2022-12-09T10:56:21.024Z,12.63
2022-12-09T10:58:47.994Z,12.74
2022-12-09T11:01:16.079Z,12.45
2022-12-09T11:03:51.110Z,12.60
2022-12-09T11:06:23.150Z,12.60
2022-12-09T11:09:01.135Z,12.19
2022-12-09T11:11:46.322Z,12.48
2022-12-09T11:14:31.954Z,12.12
2022-12-09T11:17:00.643Z,12.68
2022-12-09T11:19:30.872Z,12.88
2022-12-09T11:22:42.775Z,12.58
2022-12-09T11:25:13.083Z,12.99
2022-12-09T11:27:42.078Z,13.32
2022-12-09T11:30:15.863Z,13.48
2022-12-09T11:32:55.554Z,13.60
2022-12-09T11:35:27.742Z,13.66
2022-12-09T11:37:54.781Z,13.46
2022-12-09T11:40:21.437Z,13.63
2022-12-09T11:42:54.455Z,13.60
2022-12-09T11:45:39.510Z,13.43
2022-12-09T11:48:30.281Z,13.45
2022-12-09T11:51:00.509Z,13.48
2022-12-09T11:53:30.966Z,13.68
2022-12-09T11:56:07.953Z,13.73
2022-12-09T11:58:40.882Z,13.71
2022-12-09T12:01:41.843Z,13.83
2022-12-09T12:04:10.372Z,13.18
2022-12-09T12:07:05.495Z,13.42
2022-12-09T12:09:34.671Z,13.85
2022-12-09T12:12:03.671Z,13.96
2022-12-09T12:14:30.543Z,14.09
2022-12-09T12:17:04.930Z,14.08
2022-12-09T12:19:37.599Z,14.03
2022-12-09T12:22:21.864Z,13.75
2022-12-09T12:25:09.802Z,13.81
2022-12-09T12:27:47.009Z,13.78
2022-12-09T12:30:18.740Z,13.79
2022-12-09T12:33:46.376Z,13.86
2022-12-09T12:36:13.241Z,13.73
2022-12-09T12:39:10.486Z,13.62
2022-12-09T12:41:50.738Z,13.65
2022-12-09T12:44:51.115Z,13.41
2022-12-09T12:47:23.623Z,13.53
2022-12-09T12:50:32.105Z,13.32
2022-12-09T12:53:44.407Z,13.36
2022-12-09T12:56:28.908Z,13.10
2022-12-09T12:59:01.701Z,13.04
2022-12-09T13:01:34.413Z,13.14
2022-12-09T13:04:08.565Z,13.13
2022-12-09T13:06:40.969Z,13.03
2022-12-09T13:09:46.450Z,13.02
2022-12-09T13:12:41.757Z,12.92
2022-12-09T13:15:19.215Z,13.03
2022-12-09T13:17:46.504Z,12.99
2022-12-09T13:20:21.157Z,13.06
2022-12-09T13:22:51.879Z,13.01
2022-12-09T13:25:22.836Z,13.19
2022-12-09T13:28:26.138Z,12.62
2022-12-09T13:30:56.870Z,12.60
2022-12-09T13:33:34.045Z,12.68
2022-12-09T13:36:13.883Z,12.65
2022-12-09T13:38:42.579Z,12.71
2022-12-09T13:41:30.795Z,12.78
2022-12-09T13:44:07.661Z,12.55
2022-12-09T13:46:34.454Z,12.43
2022-12-09T13:49:20.598Z,12.36
2022-12-09T13:51:51.812Z,12.17
2022-12-09T13:54:19.454Z,12.22
2022-12-09T13:57:01.319Z,12.32
2022-12-09T14:00:03.309Z,12.14
2022-12-09T14:02:40.341Z,11.89
2022-12-09T14:05:15.217Z,11.97
2022-12-09T14:07:51.076Z,11.95
2022-12-09T14:10:43.290Z,11.75
2022-12-09T14:13:33.340Z,11.86
2022-12-09T14:16:33.900Z,11.48
2022-12-09T14:19:25.239Z,11.44
2022-12-09T14:22:23.059Z,11.68
2022-12-09T14:24:53.701Z,11.56
2022-12-09T14:27:21.132Z,11.36
2022-12-09T14:30:41.465Z,11.22
2022-12-09T14:33:25.210Z,11.15
2022-12-09T14:35:54.405Z,11.02
2022-12-09T14:39:08.333Z,10.94
2022-12-09T14:41:38.149Z,10.52
2022-12-09T14:44:39.850Z,10.31
2022-12-09T14:47:18.023Z,10.26
2022-12-09T14:49:49.286Z,10.40
2022-12-09T14:52:27.690Z,10.56
2022-12-09T14:54:54.328Z,10.24
2022-12-09T14:57:46.325Z,10.15
2022-12-09T15:00:36.069Z,9.98
2022-12-09T15:06:17.164Z,9.90
2022-12-09T15:08:44.082Z,9.66
2022-12-09T15:11:42.962Z,9.61
2022-12-09T15:14:27.710Z,9.62
2022-12-09T15:16:57.510Z,9.55
2022-12-09T15:19:59.291Z,9.53
2022-12-09T15:22:23.227Z,9.65
2022-12-09T15:24:51.125Z,9.53
2022-12-09T15:27:20.050Z,9.53
2022-12-09T15:29:46.865Z,9.36
2022-12-09T15:32:21.897Z,9.10
2022-12-09T15:34:48.662Z,8.90
2022-12-09T15:37:15.302Z,8.99
2022-12-09T15:40:08.739Z,8.83
2022-12-09T15:42:35.692Z,8.80
2022-12-09T15:45:16.869Z,8.52
2022-12-09T15:47:49.418Z,8.38
2022-12-09T15:50:28.848Z,8.49
2022-12-09T15:53:03.300Z,8.70
2022-12-09T15:55:40.594Z,8.76
2022-12-09T15:58:09.286Z,8.77
2022-12-09T16:00:40.507Z,8.72
2022-12-09T16:03:08.061Z,8.70
2022-12-09T16:05:39.978Z,8.61
2022-12-09T16:08:08.403Z,8.41
2022-12-09T16:10:45.259Z,8.42
2022-12-09T16:13:13.507Z,8.26
2022-12-09T16:15:52.520Z,8.16
2022-12-09T16:18:24.869Z,8.00
2022-12-09T16:21:19.818Z,7.95
2022-12-09T16:23:55.950Z,7.68
2022-12-09T16:26:34.326Z,7.45
2022-12-09T16:29:02.447Z,7.62
2022-12-09T16:31:29.282Z,7.64
2022-12-09T16:33:55.991Z,7.59
2022-12-09T16:36:27.982Z,7.59
2022-12-09T16:39:09.740Z,7.53
2022-12-09T16:41:51.367Z,7.38
2022-12-09T16:44:19.978Z,7.57
2022-12-09T16:46:46.684Z,7.58
2022-12-09T16:49:13.458Z,7.42
2022-12-09T16:51:40.421Z,7.40
2022-12-09T16:54:18.096Z,7.28
2022-12-09T16:56:46.949Z,7.50
2022-12-09T16:59:13.653Z,6.97
2022-12-09T17:01:41.551Z,6.95
2022-12-09T17:04:17.256Z,6.82
2022-12-09T17:06:44.043Z,7.02
2022-12-09T17:09:11.879Z,6.85
2022-12-09T17:11:39.204Z,6.77
2022-12-09T17:14:07.634Z,6.75
2022-12-09T17:16:35.913Z,6.58
2022-12-09T17:19:05.149Z,6.40
2022-12-09T17:21:31.830Z,6.37
2022-12-09T17:23:58.438Z,5.98
2022-12-09T17:26:25.109Z,5.88
2022-12-09T17:28:56.805Z,6.14
2022-12-09T17:31:26.447Z,6.12
2022-12-09T17:33:53.110Z,6.02
2022-12-09T17:36:19.748Z,5.90
2022-12-09T17:38:46.474Z,6.00
2022-12-09T17:41:15.943Z,6.01
2022-12-09T17:43:43.216Z,5.67
2022-12-09T17:46:10.222Z,5.78
2022-12-09T17:48:37.019Z,5.49
2022-12-09T17:51:10.802Z,5.62
2022-12-09T17:53:41.099Z,5.76
2022-12-09T17:56:12.764Z,5.58
2022-12-09T17:58:39.491Z,5.50
2022-12-09T18:01:12.828Z,5.23
2022-12-09T18:03:55.547Z,5.01
2022-12-09T18:06:22.888Z,4.90
2022-12-09T18:08:51.092Z,5.06
2022-12-09T18:11:17.732Z,4.98
2022-12-09T18:13:44.420Z,5.01
2022-12-09T18:16:14.148Z,4.89
2022-12-09T18:18:44.852Z,5.00
2022-12-09T18:21:15.655Z,5.03
2022-12-09T18:23:43.257Z,5.13
2022-12-09T18:26:12.150Z,5.32
2022-12-09T18:28:39.243Z,5.15
2022-12-09T18:31:25.995Z,5.13
2022-12-09T18:33:52.649Z,4.98
2022-12-09T18:36:21.342Z,5.24
2022-12-09T18:38:48.094Z,5.38
2022-12-09T18:41:16.664Z,5.43
2022-12-09T18:43:44.313Z,5.68
2022-12-09T18:46:13.102Z,5.43
2022-12-09T18:48:39.871Z,5.19
2022-12-09T18:51:09.682Z,5.22
2022-12-09T18:53:36.349Z,5.12
2022-12-09T18:56:06.079Z,5.07
2022-12-09T18:59:04.173Z,4.40
2022-12-09T19:01:24.719Z,4.46
2022-12-09T19:03:53.295Z,4.38
2022-12-09T19:06:34.533Z,4.52
2022-12-09T19:09:25.677Z,4.51
2022-12-09T19:11:52.587Z,4.63
2022-12-09T19:14:20.274Z,4.77
2022-12-09T19:16:47.207Z,4.74
2022-12-09T19:19:15.434Z,4.57
2022-12-09T19:21:42.493Z,4.47
2022-12-09T19:24:13.919Z,4.30
2022-12-09T19:26:42.711Z,4.21
2022-12-09T19:29:09.537Z,4.04
2022-12-09T19:31:40.219Z,4.10
2022-12-09T19:34:08.300Z,4.28
2022-12-09T19:36:35.068Z,4.20
2022-12-09T19:39:02.063Z,4.42
2022-12-09T19:41:28.736Z,4.49
2022-12-09T19:43:59.204Z,4.71
2022-12-09T19:46:28.681Z,4.85
2022-12-09T19:48:55.798Z,4.88
2022-12-09T19:51:22.622Z,5.26
2022-12-09T19:53:49.316Z,5.11
2022-12-09T19:56:19.326Z,4.96
2022-12-09T19:58:46.445Z,5.11
2022-12-09T20:01:22.787Z,5.11
2022-12-09T20:03:51.326Z,4.98
2022-12-09T20:06:19.353Z,5.06
2022-12-09T20:08:46.142Z,4.77
2022-12-09T20:11:21.822Z,4.75
2022-12-09T20:13:48.720Z,4.84
2022-12-09T20:16:17.696Z,4.74
2022-12-09T20:18:45.434Z,4.76
2022-12-09T20:21:13.378Z,4.28
2022-12-09T20:23:40.696Z,4.42
2022-12-09T20:26:08.733Z,4.32
2022-12-09T20:28:35.779Z,4.57
2022-12-09T20:31:07.009Z,4.51
2022-12-09T20:33:33.860Z,4.74
2022-12-09T20:36:11.321Z,4.93
2022-12-09T20:38:38.529Z,4.94
2022-12-09T20:41:06.071Z,4.86
2022-12-09T20:43:39.234Z,4.70
2022-12-09T20:46:18.785Z,4.49
2022-12-09T20:48:45.693Z,4.59
2022-12-09T20:51:20.522Z,4.61
2022-12-09T20:53:47.723Z,4.80
2022-12-09T20:56:14.347Z,5.00
2022-12-09T20:58:41.739Z,5.08
2022-12-09T21:01:11.525Z,4.99
2022-12-09T21:03:38.202Z,4.86
2022-12-09T21:06:04.989Z,4.92
2022-12-09T21:08:32.188Z,4.57
2022-12-09T21:11:22.835Z,4.39
2022-12-09T21:13:53.317Z,4.15
2022-12-09T21:16:22.074Z,4.05
2022-12-09T21:18:49.422Z,3.80
2022-12-09T21:21:16.761Z,4.17
2022-12-09T21:23:44.142Z,4.29
2022-12-09T21:26:12.409Z,4.34
2022-12-09T21:28:39.291Z,4.12
2022-12-09T21:31:27.096Z,4.04
2022-12-09T21:33:54.503Z,4.16
2022-12-09T21:36:23.434Z,3.81
2022-12-09T21:38:50.197Z,3.93
2022-12-09T21:41:20.560Z,4.28
2022-12-09T21:43:47.164Z,3.90
2022-12-09T21:46:15.447Z,3.85
2022-12-09T21:48:42.267Z,3.88
2022-12-09T21:51:09.861Z,3.84
2022-12-09T21:53:36.505Z,3.97
2022-12-09T21:56:12.093Z,3.91
2022-12-09T21:58:38.951Z,3.99
2022-12-09T22:01:09.947Z,4.10
2022-12-09T22:03:36.874Z,3.61
2022-12-09T22:06:03.759Z,3.80
2022-12-09T22:08:30.456Z,3.81
2022-12-09T22:10:58.473Z,3.72
2022-12-09T22:13:26.005Z,4.01
2022-12-09T22:15:52.789Z,4.05
2022-12-09T22:18:20.011Z,3.94
2022-12-09T22:21:23.105Z,3.93
2022-12-09T22:23:33.443Z,4.02
2022-12-09T22:26:00.072Z,4.20
2022-12-09T22:28:28.325Z,4.34
2022-12-09T22:30:55.053Z,4.17
2022-12-09T22:33:21.787Z,4.16
2022-12-09T22:35:48.438Z,4.51
2022-12-09T22:38:15.010Z,4.67
2022-12-09T22:40:41.716Z,4.57
2022-12-09T22:43:08.399Z,4.75
2022-12-09T22:45:35.597Z,4.70
2022-12-09T22:48:02.205Z,4.41
2022-12-09T22:50:28.863Z,4.49
2022-12-09T22:52:55.984Z,4.26
2022-12-09T22:55:22.648Z,4.44
2022-12-09T22:57:49.272Z,4.40
2022-12-09T23:00:16.117Z,4.54
2022-12-09T23:02:42.808Z,4.59
2022-12-09T23:05:09.533Z,4.52
2022-12-09T23:07:36.117Z,4.72
2022-12-09T23:10:02.795Z,4.66
2022-12-09T23:12:29.478Z,4.72
2022-12-09T23:14:56.104Z,4.81
2022-12-09T23:17:22.816Z,5.21
2022-12-09T23:19:49.518Z,5.13
2022-12-09T23:22:16.077Z,4.95
2022-12-09T23:24:42.765Z,4.94
2022-12-09T23:27:09.394Z,4.79
2022-12-09T23:29:36.050Z,4.84
2022-12-09T23:32:02.641Z,4.54
2022-12-09T23:34:29.342Z,4.63
2022-12-09T23:36:56.036Z,4.68
2022-12-09T23:39:22.673Z,4.67
2022-12-09T23:41:49.372Z,4.92
2022-12-09T23:44:17.499Z,4.63
2022-12-09T23:46:44.274Z,4.62
2022-12-09T23:49:11.011Z,4.42
2022-12-09T23:51:39.866Z,4.17
2022-12-09T23:54:07.517Z,4.40
2022-12-09T23:56:36.376Z,4.48
2022-12-09T23:59:04.252Z,4.39
